Time,TemperatureF,DewpointF,PressureIn,WindDirection,WindDirectionDegrees,WindSpeedMPH,WindSpeedGustMPH,Humidity,HourlyPrecipIn,Conditions,Clouds,dailyrainin,SoftwareType,DateUTC
2013-08-29 00:00:00,63.9,60.9,30.22,West,277,1.0,15.0,90,0.00,,,0.00,Wunderground v.1.15,2013-08-29 03:00:00,
2013-08-29 00:10:00,63.8,60.8,30.22,NW,304,2.0,15.0,90,0.00,,,0.00,Wunderground v.1.15,2013-08-29 03:10:00,
2013-08-29 00:15:00,63.8,60.8,30.22,WNW,283,2.0,15.0,90,0.00,,,0.00,Wunderground v.1.15,2013-08-29 03:15:00,
2013-08-29 00:20:00,63.7,60.7,30.22,NW,323,3.0,15.0,90,0.00,,,0.00,Wunderground v.1.15,2013-08-29 03:20:00,
2013-08-29 00:25:00,63.7,60.4,30.22,NNW,342,3.0,15.0,89,0.00,,,0.00,Wunderground v.1.15,2013-08-29 03:25:00,
2013-08-29 00:30:00,63.7,60.4,30.22,WNW,290,3.0,3.0,89,0.00,,,0.00,Wunderground v.1.15,2013-08-29 03:30:00,
2013-08-29 00:35:00,63.7,60.7,30.22,NNW,340,3.0,4.0,90,0.00,,,0.00,Wunderground v.1.15,2013-08-29 03:35:00,
2013-08-29 00:45:00,63.8,60.5,30.22,West,267,2.0,15.0,89,0.00,,,0.00,Wunderground v.1.15,2013-08-29 03:45:00,
2013-08-29 00:50:00,63.8,60.8,30.22,NW,310,2.0,15.0,90,0.00,,,0.00,Wunderground v.1.15,2013-08-29 03:50:00,
2013-08-29 00:55:00,63.8,60.5,30.22,West,276,2.0,15.0,89,0.00,,,0.00,Wunderground v.1.15,2013-08-29 03:55:00,
2013-08-29 01:00:00,63.9,60.6,30.22,West,278,1.0,15.0,89,0.00,,,0.00,Wunderground v.1.15,2013-08-29 04:00:00,
2013-08-29 01:05:00,63.9,60.6,30.22,WNW,294,1.0,15.0,89,0.00,,,0.00,Wunderground v.1.15,2013-08-29 04:05:00,
2013-08-29 01:10:00,64.0,60.7,30.22,West,270,1.0,15.0,89,0.00,,,0.00,Wunderground v.1.15,2013-08-29 04:10:00,
2013-08-29 01:15:00,63.9,60.9,30.22,NW,308,2.0,15.0,90,0.00,,,0.00,Wunderground v.1.15,2013-08-29 04:15:00,
2013-08-29 01:20:00,63.8,61.1,30.22,NW,312,2.0,15.0,91,0.00,,,0.00,Wunderground v.1.15,2013-08-29 04:20:00,
2013-08-29 01:25:00,63.5,60.5,30.19,NW,308,2.0,15.0,90,0.00,,,0.00,Wunderground v.1.15,2013-08-29 04:25:00,
2013-08-29 01:30:00,63.4,60.4,30.22,WSW,245,3.0,15.0,90,0.00,,,0.00,Wunderground v.1.15,2013-08-29 04:30:00,
2013-08-29 01:35:00,63.3,60.6,30.22,North,354,3.0,15.0,91,0.00,,,0.00,Wunderground v.1.15,2013-08-29 04:35:00,
2013-08-29 01:40:00,63.3,60.6,30.22,NNW,336,2.0,15.0,91,0.00,,,0.00,Wunderground v.1.15,2013-08-29 04:40:00,
2013-08-29 01:45:00,63.1,60.1,30.22,West,276,3.0,15.0,90,0.00,,,0.00,Wunderground v.1.15,2013-08-29 04:45:00,
2013-08-29 01:50:00,63.0,60.0,30.22,WNW,302,3.0,3.0,90,0.00,,,0.00,Wunderground v.1.15,2013-08-29 04:50:00,
2013-08-29 01:55:00,63.0,60.3,30.23,NW,319,2.0,15.0,91,0.00,,,0.00,Wunderground v.1.15,2013-08-29 04:55:00,
2013-08-29 02:00:00,62.9,59.9,30.23,West,278,2.0,15.0,90,0.00,,,0.00,Wunderground v.1.15,2013-08-29 05:00:00,
2013-08-29 02:05:00,62.7,59.4,30.23,WSW,253,3.0,15.0,89,0.00,,,0.00,Wunderground v.1.15,2013-08-29 05:05:00,
2013-08-29 02:10:00,62.7,59.4,30.20,NW,312,2.0,15.0,89,0.00,,,0.00,Wunderground v.1.15,2013-08-29 05:10:00,
2013-08-29 02:15:00,62.6,59.3,30.23,NW,308,2.0,15.0,89,0.00,,,0.00,Wunderground v.1.15,2013-08-29 05:15:00,
2013-08-29 02:20:00,62.6,59.3,30.23,WNW,300,2.0,15.0,89,0.00,,,0.00,Wunderground v.1.15,2013-08-29 05:20:00,
2013-08-29 02:25:00,62.5,59.2,30.22,NW,308,3.0,15.0,89,0.00,,,0.00,Wunderground v.1.15,2013-08-29 05:25:00,
2013-08-29 02:30:00,62.4,59.1,30.23,West,279,3.0,3.0,89,0.00,,,0.00,Wunderground v.1.15,2013-08-29 05:30:00,
2013-08-29 02:35:00,62.3,59.0,30.23,WNW,290,3.0,15.0,89,0.00,,,0.00,Wunderground v.1.15,2013-08-29 05:35:00,
2013-08-29 02:40:00,62.2,58.6,30.22,NNW,347,2.0,15.0,88,0.00,,,0.00,Wunderground v.1.15,2013-08-29 05:40:00,
2013-08-29 02:50:00,62.2,58.9,30.23,WNW,287,2.0,15.0,89,0.00,,,0.00,Wunderground v.1.15,2013-08-29 05:50:00,
2013-08-29 02:55:00,61.9,58.6,30.23,West,269,3.0,15.0,89,0.00,,,0.00,Wunderground v.1.15,2013-08-29 05:55:00,
2013-08-29 03:00:00,61.7,58.7,30.23,WSW,238,3.0,3.0,90,0.00,,,0.00,Wunderground v.1.15,2013-08-29 06:00:00,
2013-08-29 03:05:00,61.6,58.6,30.23,WNW,302,2.0,15.0,90,0.00,,,0.00,Wunderground v.1.15,2013-08-29 06:05:00,
2013-08-29 03:10:00,61.3,58.7,30.23,West,259,2.0,2.0,91,0.00,,,0.00,Wunderground v.1.15,2013-08-29 06:10:00,
2013-08-29 03:15:00,61.0,58.0,30.23,NW,312,3.0,4.0,90,0.00,,,0.00,Wunderground v.1.15,2013-08-29 06:15:00,
2013-08-29 03:25:00,60.9,58.3,30.23,NW,308,2.0,15.0,91,0.00,,,0.00,Wunderground v.1.15,2013-08-29 06:25:00,
2013-08-29 03:30:00,60.8,57.8,30.23,NW,310,2.0,2.0,90,0.00,,,0.00,Wunderground v.1.15,2013-08-29 06:30:00,
2013-08-29 03:35:00,60.6,57.7,30.23,WNW,290,3.0,3.0,90,0.00,,,0.00,Wunderground v.1.15,2013-08-29 06:35:00,
2013-08-29 03:40:00,60.5,57.6,30.23,WSW,249,2.0,15.0,90,0.00,,,0.00,Wunderground v.1.15,2013-08-29 06:40:00,
2013-08-29 03:45:00,60.4,57.5,30.23,NW,316,2.0,15.0,90,0.00,,,0.00,Wunderground v.1.15,2013-08-29 06:45:00,
2013-08-29 03:55:00,60.2,56.9,30.23,NW,310,2.0,15.0,89,0.00,,,0.00,Wunderground v.1.15,2013-08-29 06:55:00,
2013-08-29 04:00:00,60.1,57.2,30.23,NW,317,2.0,15.0,90,0.00,,,0.00,Wunderground v.1.15,2013-08-29 07:00:00,
2013-08-29 04:05:00,59.9,57.0,30.24,NW,316,3.0,15.0,90,0.00,,,0.00,Wunderground v.1.15,2013-08-29 07:05:00,
2013-08-29 04:10:00,59.8,56.9,30.24,WNW,302,3.0,3.0,90,0.00,,,0.00,Wunderground v.1.15,2013-08-29 07:10:00,
2013-08-29 04:15:00,59.7,56.8,30.24,NW,324,3.0,15.0,90,0.00,,,0.00,Wunderground v.1.15,2013-08-29 07:15:00,
2013-08-29 04:20:00,59.7,56.8,30.24,WNW,287,3.0,3.0,90,0.00,,,0.00,Wunderground v.1.15,2013-08-29 07:20:00,
2013-08-29 04:30:00,59.5,56.3,30.24,NW,323,2.0,15.0,89,0.00,,,0.00,Wunderground v.1.15,2013-08-29 07:30:00,
2013-08-29 04:35:00,59.6,56.7,30.24,NNW,340,3.0,15.0,90,0.00,,,0.00,Wunderground v.1.15,2013-08-29 07:35:00,
2013-08-29 04:40:00,59.5,56.6,30.24,WNW,288,2.0,15.0,90,0.00,,,0.00,Wunderground v.1.15,2013-08-29 07:40:00,
2013-08-29 04:45:00,59.6,56.7,30.24,West,259,2.0,15.0,90,0.00,,,0.00,Wunderground v.1.15,2013-08-29 07:45:00,
2013-08-29 04:50:00,59.7,56.8,30.24,WSW,248,2.0,15.0,90,0.00,,,0.00,Wunderground v.1.15,2013-08-29 07:50:00,
2013-08-29 04:55:00,59.5,56.3,30.24,WNW,300,2.0,15.0,89,0.00,,,0.00,Wunderground v.1.15,2013-08-29 07:55:00,
2013-08-29 05:00:00,59.5,56.6,30.24,West,271,2.0,2.0,90,0.00,,,0.00,Wunderground v.1.15,2013-08-29 08:00:00,
2013-08-29 05:05:00,59.5,56.6,30.24,NW,304,2.0,15.0,90,0.00,,,0.00,Wunderground v.1.15,2013-08-29 08:05:00,
2013-08-29 05:10:00,59.6,56.7,30.24,West,262,2.0,2.0,90,0.00,,,0.00,Wunderground v.1.15,2013-08-29 08:10:00,
2013-08-29 05:15:00,59.5,56.6,30.24,WSW,256,2.0,15.0,90,0.00,,,0.00,Wunderground v.1.15,2013-08-29 08:15:00,
2013-08-29 05:20:00,59.4,56.5,30.24,West,263,2.0,2.0,90,0.00,,,0.00,Wunderground v.1.15,2013-08-29 08:20:00,
2013-08-29 05:30:00,59.6,56.7,30.24,WNW,288,2.0,2.0,90,0.00,,,0.00,Wunderground v.1.15,2013-08-29 08:30:00,
2013-08-29 05:35:00,59.6,56.7,30.24,West,269,1.0,15.0,90,0.00,,,0.00,Wunderground v.1.15,2013-08-29 08:35:00,
2013-08-29 05:40:00,59.8,56.9,30.24,WSW,252,1.0,15.0,90,0.00,,,0.00,Wunderground v.1.15,2013-08-29 08:40:00,
2013-08-29 05:45:00,60.1,57.2,30.24,WNW,302,1.0,15.0,90,0.00,,,0.00,Wunderground v.1.15,2013-08-29 08:45:00,
2013-08-29 05:50:00,60.2,56.9,30.24,WNW,283,2.0,15.0,89,0.00,,,0.00,Wunderground v.1.15,2013-08-29 08:50:00,
2013-08-29 05:55:00,60.2,57.3,30.24,WSW,248,1.0,15.0,90,0.00,,,0.00,Wunderground v.1.15,2013-08-29 08:55:00,
2013-08-29 06:05:00,60.2,57.6,30.25,WSW,252,1.0,15.0,91,0.00,,,0.00,Wunderground v.1.15,2013-08-29 09:05:00,
2013-08-29 06:10:00,60.3,57.7,30.25,South,177,1.0,15.0,91,0.00,,,0.00,Wunderground v.1.15,2013-08-29 09:10:00,
2013-08-29 06:15:00,60.2,57.6,30.25,WNW,291,1.0,15.0,91,0.00,,,0.00,Wunderground v.1.15,2013-08-29 09:15:00,
2013-08-29 06:20:00,60.2,57.6,30.25,West,270,1.0,15.0,91,0.00,,,0.00,Wunderground v.1.15,2013-08-29 09:20:00,
2013-08-29 06:25:00,60.3,57.4,30.25,WNW,290,2.0,15.0,90,0.00,,,0.00,Wunderground v.1.15,2013-08-29 09:25:00,
2013-08-29 06:35:00,60.3,57.4,30.25,West,269,2.0,15.0,90,0.00,,,0.00,Wunderground v.1.15,2013-08-29 09:35:00,
2013-08-29 06:40:00,60.4,57.5,30.22,WNW,288,1.0,15.0,90,0.00,,,0.00,Wunderground v.1.15,2013-08-29 09:40:00,
2013-08-29 06:45:00,60.4,57.5,30.25,East,86,1.0,15.0,90,0.00,,,0.00,Wunderground v.1.15,2013-08-29 09:45:00,
2013-08-29 06:50:00,60.4,57.5,30.25,NE,50,1.0,15.0,90,0.00,,,0.00,Wunderground v.1.15,2013-08-29 09:50:00,
2013-08-29 06:55:00,60.5,57.6,30.25,West,259,1.0,15.0,90,0.00,,,0.00,Wunderground v.1.15,2013-08-29 09:55:00,
2013-08-29 07:00:00,60.7,58.1,30.26,WSW,246,1.0,15.0,91,0.00,,,0.00,Wunderground v.1.15,2013-08-29 10:00:00,
2013-08-29 07:10:00,61.2,58.6,30.26,SW,236,1.0,1.0,91,0.00,,,0.00,Wunderground v.1.15,2013-08-29 10:10:00,
2013-08-29 07:15:00,61.4,59.1,30.26,NW,308,1.0,2.0,92,0.00,,,0.00,Wunderground v.1.15,2013-08-29 10:15:00,
2013-08-29 07:20:00,61.4,59.1,30.26,WNW,285,1.0,15.0,92,0.00,,,0.00,Wunderground v.1.15,2013-08-29 10:20:00,
2013-08-29 07:25:00,61.4,59.4,30.25,WSW,256,1.0,15.0,93,0.00,,,0.00,Wunderground v.1.15,2013-08-29 10:25:00,
2013-08-29 07:30:00,61.3,59.3,30.25,NNW,331,2.0,15.0,93,0.00,,,0.00,Wunderground v.1.15,2013-08-29 10:30:00,
2013-08-29 07:40:00,61.4,59.4,30.26,West,259,2.0,2.0,93,0.00,,,0.00,Wunderground v.1.15,2013-08-29 10:40:00,
2013-08-29 07:45:00,61.4,59.4,30.26,WNW,295,2.0,15.0,93,0.00,,,0.00,Wunderground v.1.15,2013-08-29 10:45:00,
2013-08-29 07:50:00,61.4,59.4,30.26,WSW,250,2.0,2.0,93,0.00,,,0.00,Wunderground v.1.15,2013-08-29 10:50:00,
2013-08-29 07:55:00,61.5,59.5,30.26,WSW,256,1.0,15.0,93,0.00,,,0.00,Wunderground v.1.15,2013-08-29 10:55:00,
2013-08-29 08:00:00,61.8,59.8,30.26,NW,319,1.0,15.0,93,0.00,,,0.00,Wunderground v.1.15,2013-08-29 11:00:00,
2013-08-29 08:05:00,61.9,59.9,30.26,WSW,240,1.0,15.0,93,0.00,,,0.00,Wunderground v.1.15,2013-08-29 11:05:00,
2013-08-29 08:15:00,62.1,59.7,30.26,WNW,293,1.0,15.0,92,0.00,,,0.00,Wunderground v.1.15,2013-08-29 11:15:00,
2013-08-29 08:20:00,62.2,59.8,30.26,SW,233,1.0,15.0,92,0.00,,,0.00,Wunderground v.1.15,2013-08-29 11:20:00,
2013-08-29 08:25:00,62.3,59.9,30.26,WNW,288,2.0,15.0,92,0.00,,,0.00,Wunderground v.1.15,2013-08-29 11:25:00,
2013-08-29 08:30:00,62.3,59.9,30.26,WNW,294,2.0,2.0,92,0.00,,,0.00,Wunderground v.1.15,2013-08-29 11:30:00,
2013-08-29 08:35:00,62.4,60.0,30.26,WNW,290,1.0,15.0,92,0.00,,,0.00,Wunderground v.1.15,2013-08-29 11:35:00,
2013-08-29 08:40:00,62.6,60.2,30.25,NW,323,2.0,15.0,92,0.00,,,0.00,Wunderground v.1.15,2013-08-29 11:40:00,
2013-08-29 08:45:00,62.8,60.4,30.25,West,273,2.0,15.0,92,0.00,,,0.00,Wunderground v.1.15,2013-08-29 11:45:00,
2013-08-29 08:50:00,63.0,60.3,30.25,NW,308,1.0,15.0,91,0.00,,,0.00,Wunderground v.1.15,2013-08-29 11:50:00,
2013-08-29 08:55:00,63.1,60.4,30.25,North,360,2.0,15.0,91,0.00,,,0.00,Wunderground v.1.15,2013-08-29 11:55:00,
2013-08-29 09:00:00,63.2,60.5,30.23,NW,311,2.0,15.0,91,0.00,,,0.00,Wunderground v.1.15,2013-08-29 12:00:00,
2013-08-29 09:05:00,63.3,60.6,30.26,WNW,285,1.0,15.0,91,0.00,,,0.00,Wunderground v.1.15,2013-08-29 12:05:00,
2013-08-29 09:15:00,63.7,60.7,30.25,West,273,1.0,15.0,90,0.00,,,0.00,Wunderground v.1.15,2013-08-29 12:15:00,
2013-08-29 09:20:00,63.8,60.5,30.26,NW,304,1.0,1.0,89,0.00,,,0.00,Wunderground v.1.15,2013-08-29 12:20:00,
2013-08-29 09:25:00,63.9,60.6,30.26,West,279,1.0,15.0,89,0.00,,,0.00,Wunderground v.1.15,2013-08-29 12:25:00,
2013-08-29 09:30:00,64.0,60.7,30.23,West,259,1.0,1.0,89,0.00,,,0.00,Wunderground v.1.15,2013-08-29 12:30:00,
2013-08-29 09:35:00,64.1,60.8,30.26,WSW,253,1.0,15.0,89,0.00,,,0.00,Wunderground v.1.15,2013-08-29 12:35:00,
2013-08-29 09:40:00,64.1,60.5,30.26,NE,56,1.0,15.0,88,0.00,,,0.00,Wunderground v.1.15,2013-08-29 12:40:00,
2013-08-29 09:50:00,63.7,60.1,30.26,WSW,249,2.0,2.0,88,0.00,,,0.00,Wunderground v.1.15,2013-08-29 12:50:00,
2013-08-29 09:55:00,63.5,59.9,30.26,WNW,299,1.0,15.0,88,0.00,,,0.00,Wunderground v.1.15,2013-08-29 12:55:00,
2013-08-29 10:00:00,63.4,59.8,30.26,WNW,298,1.0,15.0,88,0.00,,,0.00,Wunderground v.1.15,2013-08-29 13:00:00,
2013-08-29 10:05:00,63.3,59.4,30.26,WNW,294,1.0,15.0,87,0.00,,,0.00,Wunderground v.1.15,2013-08-29 13:05:00,
2013-08-29 10:10:00,63.4,59.8,30.23,West,270,1.0,15.0,88,0.00,,,0.00,Wunderground v.1.15,2013-08-29 13:10:00,
2013-08-29 10:20:00,63.7,60.1,30.26,West,279,1.0,1.0,88,0.00,,,0.00,Wunderground v.1.15,2013-08-29 13:20:00,
2013-08-29 10:25:00,63.8,59.9,30.26,SSW,204,1.0,15.0,87,0.00,,,0.00,Wunderground v.1.15,2013-08-29 13:25:00,
2013-08-29 10:30:00,63.9,60.0,30.26,North,5,1.0,1.0,87,0.00,,,0.00,Wunderground v.1.15,2013-08-29 13:30:00,
2013-08-29 10:35:00,64.2,59.9,30.23,NNW,330,1.0,3.0,86,0.00,,,0.00,Wunderground v.1.15,2013-08-29 13:35:00,
2013-08-29 10:40:00,64.5,59.9,30.26,SE,124,1.0,1.0,85,0.00,,,0.00,Wunderground v.1.15,2013-08-29 13:40:00,
2013-08-29 10:45:00,64.9,60.3,30.25,West,270,1.0,15.0,85,0.00,,,0.00,Wunderground v.1.15,2013-08-29 13:45:00,
2013-08-29 10:55:00,64.8,59.5,30.25,WSW,248,0.0,2.0,83,0.00,,,0.00,Wunderground v.1.15,2013-08-29 13:55:00,
2013-08-29 11:00:00,64.5,59.2,30.26,WSW,257,1.0,1.0,83,0.00,,,0.00,Wunderground v.1.15,2013-08-29 14:00:00,
2013-08-29 11:05:00,64.2,58.9,30.26,WSW,240,1.0,3.0,83,0.00,,,0.00,Wunderground v.1.15,2013-08-29 14:05:00,
2013-08-29 11:10:00,63.9,58.6,30.26,SE,125,1.0,15.0,83,0.00,,,0.00,Wunderground v.1.15,2013-08-29 14:10:00,
2013-08-29 11:15:00,63.7,58.8,30.26,SW,221,1.0,15.0,84,0.00,,,0.00,Wunderground v.1.15,2013-08-29 14:15:00,
2013-08-29 11:25:00,63.5,58.9,30.26,South,174,1.0,15.0,85,0.00,,,0.00,Wunderground v.1.15,2013-08-29 14:25:00,
2013-08-29 11:30:00,63.5,58.9,30.25,West,281,1.0,15.0,85,0.00,,,0.00,Wunderground v.1.15,2013-08-29 14:30:00,
2013-08-29 11:35:00,63.4,58.8,30.23,West,271,1.0,15.0,85,0.00,,,0.00,Wunderground v.1.15,2013-08-29 14:35:00,
2013-08-29 11:40:00,63.6,59.0,30.25,SW,233,1.0,15.0,85,0.00,,,0.00,Wunderground v.1.15,2013-08-29 14:40:00,
2013-08-29 11:45:00,63.6,59.3,30.26,East,101,1.0,15.0,86,0.00,,,0.00,Wunderground v.1.15,2013-08-29 14:45:00,
2013-08-29 11:50:00,63.4,59.1,30.26,SW,221,1.0,1.0,86,0.00,,,0.00,Wunderground v.1.15,2013-08-29 14:50:00,
2013-08-29 11:55:00,63.2,58.9,30.26,ENE,60,1.0,15.0,86,0.00,,,0.00,Wunderground v.1.15,2013-08-29 14:55:00,
2013-08-29 12:00:00,63.1,59.2,30.26,ESE,122,1.0,15.0,87,0.00,,,0.00,Wunderground v.1.15,2013-08-29 15:00:00,
2013-08-29 12:05:00,63.3,59.4,30.26,NW,324,1.0,15.0,87,0.00,,,0.00,Wunderground v.1.15,2013-08-29 15:05:00,
2013-08-29 12:10:00,63.1,59.2,30.26,ENE,64,1.0,1.0,87,0.00,,,0.00,Wunderground v.1.15,2013-08-29 15:10:00,
2013-08-29 12:20:00,63.0,59.4,30.25,NNE,12,1.0,15.0,88,0.00,,,0.00,Wunderground v.1.15,2013-08-29 15:20:00,
2013-08-29 12:25:00,62.9,59.3,30.25,NNE,23,1.0,15.0,88,0.00,,,0.00,Wunderground v.1.15,2013-08-29 15:25:00,
2013-08-29 12:30:00,62.9,59.6,30.26,West,267,1.0,1.0,89,0.00,,,0.00,Wunderground v.1.15,2013-08-29 15:30:00,
2013-08-29 12:35:00,62.8,59.5,30.25,WSW,252,0.0,15.0,89,0.00,,,0.00,Wunderground v.1.15,2013-08-29 15:35:00,
2013-08-29 12:40:00,62.7,59.7,30.25,SW,235,0.0,15.0,90,0.00,,,0.00,Wunderground v.1.15,2013-08-29 15:40:00,
2013-08-29 12:45:00,62.8,59.5,30.25,WNW,294,0.0,15.0,89,0.00,,,0.00,Wunderground v.1.15,2013-08-29 15:45:00,
2013-08-29 12:50:00,63.3,59.7,30.25,WNW,302,1.0,15.0,88,0.00,,,0.00,Wunderground v.1.15,2013-08-29 15:50:00,
2013-08-29 13:00:00,64.0,59.7,30.22,SW,218,0.0,15.0,86,0.00,,,0.00,Wunderground v.1.15,2013-08-29 16:00:00,
2013-08-29 13:05:00,64.1,59.5,30.25,WNW,287,0.0,15.0,85,0.00,,,0.00,Wunderground v.1.15,2013-08-29 16:05:00,
2013-08-29 13:10:00,64.0,58.7,30.25,WSW,239,1.0,1.0,83,0.00,,,0.00,Wunderground v.1.15,2013-08-29 16:10:00,
2013-08-29 13:15:00,64.3,59.4,30.25,WSW,248,1.0,15.0,84,0.00,,,0.00,Wunderground v.1.15,2013-08-29 16:15:00,
2013-08-29 13:20:00,64.4,59.5,30.25,NNE,15,1.0,15.0,84,0.00,,,0.00,Wunderground v.1.15,2013-08-29 16:20:00,
2013-08-29 13:25:00,64.6,59.7,30.23,ESE,109,1.0,15.0,84,0.00,,,0.00,Wunderground v.1.15,2013-08-29 16:25:00,
2013-08-29 13:35:00,64.4,59.1,30.25,West,273,0.0,15.0,83,0.00,,,0.00,Wunderground v.1.15,2013-08-29 16:35:00,
2013-08-29 13:40:00,64.3,59.0,30.25,East,85,0.0,15.0,83,0.00,,,0.00,Wunderground v.1.15,2013-08-29 16:40:00,
2013-08-29 13:45:00,64.2,59.3,30.25,West,276,0.0,15.0,84,0.00,,,0.00,Wunderground v.1.15,2013-08-29 16:45:00,
2013-08-29 13:50:00,64.1,59.5,30.24,WNW,285,1.0,1.0,85,0.00,,,0.00,Wunderground v.1.15,2013-08-29 16:50:00,
2013-08-29 13:55:00,64.0,59.4,30.22,WNW,287,0.0,15.0,85,0.00,,,0.00,Wunderground v.1.15,2013-08-29 16:55:00,
2013-08-29 14:05:00,63.9,59.6,30.24,WSW,258,0.0,15.0,86,0.00,,,0.00,Wunderground v.1.15,2013-08-29 17:05:00,
2013-08-29 14:10:00,63.9,59.3,30.24,West,267,0.0,15.0,85,0.00,,,0.00,Wunderground v.1.15,2013-08-29 17:10:00,
2013-08-29 14:15:00,63.9,59.6,30.24,WSW,248,0.0,15.0,86,0.00,,,0.00,Wunderground v.1.15,2013-08-29 17:15:00,
2013-08-29 14:20:00,63.9,59.6,30.24,WNW,283,1.0,1.0,86,0.00,,,0.00,Wunderground v.1.15,2013-08-29 17:20:00,
2013-08-29 14:25:00,64.0,59.7,30.24,WNW,290,0.0,15.0,86,0.00,,,0.00,Wunderground v.1.15,2013-08-29 17:25:00,
2013-08-29 14:30:00,64.1,59.8,30.24,WNW,288,0.0,15.0,86,0.00,,,0.00,Wunderground v.1.15,2013-08-29 17:30:00,
2013-08-29 14:35:00,64.1,59.8,30.24,WSW,250,1.0,15.0,86,0.00,,,0.00,Wunderground v.1.15,2013-08-29 17:35:00,
2013-08-29 14:40:00,64.1,59.8,30.24,NW,309,0.0,15.0,86,0.00,,,0.00,Wunderground v.1.15,2013-08-29 17:40:00,
2013-08-29 14:45:00,64.1,59.8,30.24,WSW,249,0.0,15.0,86,0.00,,,0.00,Wunderground v.1.15,2013-08-29 17:45:00,
2013-08-29 14:50:00,64.0,59.7,30.24,WNW,288,1.0,15.0,86,0.00,,,0.00,Wunderground v.1.15,2013-08-29 17:50:00,
2013-08-29 14:55:00,63.9,59.6,30.24,NW,324,1.0,15.0,86,0.00,,,0.00,Wunderground v.1.15,2013-08-29 17:55:00,
2013-08-29 15:00:00,63.7,59.4,30.23,WNW,287,1.0,1.0,86,0.00,,,0.00,Wunderground v.1.15,2013-08-29 18:00:00,
2013-08-29 15:10:00,63.5,59.6,30.23,NW,308,1.0,1.0,87,0.00,,,0.00,Wunderground v.1.15,2013-08-29 18:10:00,
2013-08-29 15:15:00,63.5,59.6,30.23,WNW,301,0.0,15.0,87,0.00,,,0.00,Wunderground v.1.15,2013-08-29 18:15:00,
2013-08-29 15:20:00,63.4,59.5,30.22,West,271,0.0,15.0,87,0.00,,,0.00,Wunderground v.1.15,2013-08-29 18:20:00,
2013-08-29 15:25:00,63.4,59.5,30.20,WNW,301,1.0,15.0,87,0.00,,,0.00,Wunderground v.1.15,2013-08-29 18:25:00,
2013-08-29 15:30:00,63.3,59.7,30.22,WNW,290,1.0,1.0,88,0.00,,,0.00,Wunderground v.1.15,2013-08-29 18:30:00,
2013-08-29 15:35:00,63.4,59.8,30.22,WSW,250,0.0,15.0,88,0.00,,,0.00,Wunderground v.1.15,2013-08-29 18:35:00,
2013-08-29 15:45:00,63.4,59.5,30.22,NNW,329,1.0,15.0,87,0.00,,,0.00,Wunderground v.1.15,2013-08-29 18:45:00,
2013-08-29 15:50:00,63.6,59.7,30.19,West,280,1.0,1.0,87,0.00,,,0.00,Wunderground v.1.15,2013-08-29 18:50:00,
2013-08-29 15:55:00,63.6,59.7,30.22,NW,310,0.0,15.0,87,0.00,,,0.00,Wunderground v.1.15,2013-08-29 18:55:00,
2013-08-29 16:00:00,63.5,59.6,30.22,West,269,0.0,15.0,87,0.00,,,0.00,Wunderground v.1.15,2013-08-29 19:00:00,
2013-08-29 16:05:00,63.6,59.7,30.22,WNW,296,0.0,15.0,87,0.00,,,0.00,Wunderground v.1.15,2013-08-29 19:05:00,
2013-08-29 16:10:00,63.4,59.1,30.22,WSW,256,0.0,15.0,86,0.00,,,0.00,Wunderground v.1.15,2013-08-29 19:10:00,
2013-08-29 16:15:00,63.4,59.8,30.22,NW,322,0.0,15.0,88,0.00,,,0.00,Wunderground v.1.15,2013-08-29 19:15:00,
2013-08-29 16:20:00,63.2,59.3,30.21,WNW,300,0.0,15.0,87,0.00,,,0.00,Wunderground v.1.15,2013-08-29 19:20:00,
2013-08-29 16:25:00,63.1,59.5,30.21,West,259,0.0,15.0,88,0.00,,,0.00,Wunderground v.1.15,2013-08-29 19:25:00,
2013-08-29 16:30:00,63.0,59.4,30.21,West,266,0.0,15.0,88,0.00,,,0.00,Wunderground v.1.15,2013-08-29 19:30:00,
2013-08-29 16:35:00,63.0,59.1,30.21,WNW,283,0.0,15.0,87,0.00,,,0.00,Wunderground v.1.15,2013-08-29 19:35:00,
2013-08-29 16:45:00,62.9,59.3,30.20,West,274,1.0,15.0,88,0.00,,,0.00,Wunderground v.1.15,2013-08-29 19:45:00,
2013-08-29 16:50:00,62.8,58.9,30.20,NW,310,0.0,15.0,87,0.00,,,0.00,Wunderground v.1.15,2013-08-29 19:50:00,
2013-08-29 16:55:00,62.9,59.3,30.20,WNW,301,0.0,15.0,88,0.00,,,0.00,Wunderground v.1.15,2013-08-29 19:55:00,
2013-08-29 17:00:00,62.8,59.2,30.20,WNW,303,1.0,1.0,88,0.00,,,0.00,Wunderground v.1.15,2013-08-29 20:00:00,
2013-08-29 17:05:00,62.8,59.2,30.20,WNW,302,0.0,2.0,88,0.00,,,0.00,Wunderground v.1.15,2013-08-29 20:05:00,
2013-08-29 17:10:00,62.7,58.8,30.20,West,276,1.0,1.0,87,0.00,,,0.00,Wunderground v.1.15,2013-08-29 20:10:00,
2013-08-29 17:20:00,62.6,59.0,30.19,WNW,295,0.0,15.0,88,0.00,,,0.00,Wunderground v.1.15,2013-08-29 20:20:00,
2013-08-29 17:25:00,62.6,59.0,30.19,West,260,1.0,15.0,88,0.00,,,0.00,Wunderground v.1.15,2013-08-29 20:25:00,
2013-08-29 17:30:00,62.6,59.0,30.19,SSW,198,1.0,1.0,88,0.00,,,0.00,Wunderground v.1.15,2013-08-29 20:30:00,
2013-08-29 17:35:00,62.6,58.7,30.19,West,278,1.0,15.0,87,0.00,,,0.00,Wunderground v.1.15,2013-08-29 20:35:00,
2013-08-29 17:40:00,62.7,59.1,30.19,North,349,0.0,15.0,88,0.00,,,0.00,Wunderground v.1.15,2013-08-29 20:40:00,
2013-08-29 17:50:00,62.8,59.2,30.18,WNW,285,0.0,15.0,88,0.00,,,0.00,Wunderground v.1.15,2013-08-29 20:50:00,
2013-08-29 17:55:00,62.8,59.5,30.18,NW,308,0.0,15.0,89,0.00,,,0.00,Wunderground v.1.15,2013-08-29 20:55:00,
2013-08-29 18:00:00,62.7,59.1,30.18,West,273,0.0,15.0,88,0.00,,,0.00,Wunderground v.1.15,2013-08-29 21:00:00,
2013-08-29 18:05:00,62.7,59.1,30.18,West,281,1.0,15.0,88,0.00,,,0.00,Wunderground v.1.15,2013-08-29 21:05:00,
2013-08-29 18:10:00,62.6,59.0,30.18,ENE,64,1.0,1.0,88,0.00,,,0.00,Wunderground v.1.15,2013-08-29 21:10:00,
2013-08-29 18:15:00,62.5,58.6,30.18,West,271,1.0,15.0,87,0.00,,,0.00,Wunderground v.1.15,2013-08-29 21:15:00,
2013-08-29 18:25:00,62.6,59.0,30.17,WNW,302,0.0,15.0,88,0.00,,,0.00,Wunderground v.1.15,2013-08-29 21:25:00,
2013-08-29 18:30:00,62.6,59.3,30.17,WNW,295,0.0,15.0,89,0.00,,,0.00,Wunderground v.1.15,2013-08-29 21:30:00,
2013-08-29 18:35:00,62.6,59.3,30.17,West,281,0.0,15.0,89,0.00,,,0.00,Wunderground v.1.15,2013-08-29 21:35:00,
2013-08-29 18:40:00,62.5,58.9,30.17,West,267,1.0,1.0,88,0.00,,,0.00,Wunderground v.1.15,2013-08-29 21:40:00,
2013-08-29 18:45:00,62.6,59.3,30.16,ENE,71,1.0,15.0,89,0.00,,,0.00,Wunderground v.1.15,2013-08-29 21:45:00,
2013-08-29 18:55:00,62.5,59.2,30.16,NNW,335,1.0,2.0,89,0.00,,,0.00,Wunderground v.1.15,2013-08-29 21:55:00,
2013-08-29 19:00:00,62.5,58.9,30.16,WNW,301,1.0,15.0,88,0.00,,,0.00,Wunderground v.1.15,2013-08-29 22:00:00,
2013-08-29 19:05:00,62.5,59.2,30.16,West,279,1.0,15.0,89,0.00,,,0.00,Wunderground v.1.15,2013-08-29 22:05:00,
2013-08-29 19:10:00,62.5,59.2,30.16,NW,305,2.0,2.0,89,0.00,,,0.00,Wunderground v.1.15,2013-08-29 22:10:00,
2013-08-29 19:15:00,62.5,59.2,30.16,WNW,294,2.0,15.0,89,0.00,,,0.00,Wunderground v.1.15,2013-08-29 22:15:00,
2013-08-29 19:20:00,62.5,59.2,30.16,WSW,248,2.0,15.0,89,0.00,,,0.00,Wunderground v.1.15,2013-08-29 22:20:00,
2013-08-29 19:30:00,62.3,59.0,30.16,WSW,255,2.0,15.0,89,0.00,,,0.00,Wunderground v.1.15,2013-08-29 22:30:00,
2013-08-29 19:35:00,62.3,59.0,30.16,WNW,294,2.0,15.0,89,0.00,,,0.00,Wunderground v.1.15,2013-08-29 22:35:00,
2013-08-29 19:40:00,62.2,58.9,30.16,West,262,2.0,15.0,89,0.00,,,0.00,Wunderground v.1.15,2013-08-29 22:40:00,
2013-08-29 19:45:00,62.2,58.9,30.16,NW,308,2.0,15.0,89,0.00,,,0.00,Wunderground v.1.15,2013-08-29 22:45:00,
2013-08-29 19:50:00,62.2,58.9,30.16,West,270,2.0,2.0,89,0.00,,,0.00,Wunderground v.1.15,2013-08-29 22:50:00,
2013-08-29 19:55:00,62.2,58.9,30.16,SW,225,2.0,15.0,89,0.00,,,0.00,Wunderground v.1.15,2013-08-29 22:55:00,
2013-08-29 20:00:00,62.2,58.9,30.16,West,262,2.0,2.0,89,0.00,,,0.00,Wunderground v.1.15,2013-08-29 23:00:00,
2013-08-29 20:05:00,62.2,59.2,30.16,West,278,1.0,15.0,90,0.00,,,0.00,Wunderground v.1.15,2013-08-29 23:05:00,
2013-08-29 20:10:00,62.1,58.8,30.15,NNW,335,2.0,2.0,89,0.00,,,0.00,Wunderground v.1.15,2013-08-29 23:10:00,
2013-08-29 20:15:00,62.0,58.7,30.15,West,261,2.0,15.0,89,0.00,,,0.00,Wunderground v.1.15,2013-08-29 23:15:00,
2013-08-29 20:20:00,62.1,59.1,30.15,WNW,298,2.0,2.0,90,0.00,,,0.00,Wunderground v.1.15,2013-08-29 23:20:00,
2013-08-29 20:30:00,61.8,58.8,30.14,WNW,300,1.0,15.0,90,0.00,,,0.00,Wunderground v.1.15,2013-08-29 23:30:00,
2013-08-29 20:35:00,61.7,58.7,30.14,WSW,256,1.0,15.0,90,0.00,,,0.00,Wunderground v.1.15,2013-08-29 23:35:00,
2013-08-29 20:40:00,61.7,58.7,30.14,West,261,1.0,15.0,90,0.00,,,0.00,Wunderground v.1.15,2013-08-29 23:40:00,
2013-08-29 20:45:00,61.8,58.8,30.14,West,278,2.0,15.0,90,0.00,,,0.00,Wunderground v.1.15,2013-08-29 23:45:00,
2013-08-29 20:50:00,61.9,58.9,30.14,NW,310,2.0,2.0,90,0.00,,,0.00,Wunderground v.1.15,2013-08-29 23:50:00,
2013-08-29 20:55:00,61.9,58.9,30.14,NW,308,2.0,3.0,90,0.00,,,0.00,Wunderground v.1.15,2013-08-29 23:55:00,
2013-08-29 21:05:00,62.0,59.0,30.13,West,267,2.0,3.0,90,0.00,,,0.00,Wunderground v.1.15,2013-08-30 00:05:00,
2013-08-29 21:10:00,61.9,58.9,30.13,NE,54,2.0,15.0,90,0.00,,,0.00,Wunderground v.1.15,2013-08-30 00:10:00,
2013-08-29 21:15:00,61.9,58.9,30.13,WSW,248,2.0,15.0,90,0.00,,,0.00,Wunderground v.1.15,2013-08-30 00:15:00,
2013-08-29 21:20:00,61.9,58.9,30.13,NW,308,2.0,15.0,90,0.00,,,0.00,Wunderground v.1.15,2013-08-30 00:20:00,
2013-08-29 21:25:00,61.8,58.8,30.12,West,265,2.0,15.0,90,0.00,,,0.00,Wunderground v.1.15,2013-08-30 00:25:00,
2013-08-29 21:35:00,61.9,58.9,30.11,WNW,293,2.0,3.0,90,0.00,,,0.00,Wunderground v.1.15,2013-08-30 00:35:00,
2013-08-29 21:40:00,61.9,58.9,30.11,West,267,2.0,15.0,90,0.00,,,0.00,Wunderground v.1.15,2013-08-30 00:40:00,
2013-08-29 21:45:00,61.9,58.9,30.11,WNW,302,2.0,15.0,90,0.00,,,0.00,Wunderground v.1.15,2013-08-30 00:45:00,
2013-08-29 21:50:00,61.9,58.9,30.08,West,266,2.0,2.0,90,0.00,,,0.00,Wunderground v.1.15,2013-08-30 00:50:00,
2013-08-29 21:55:00,61.9,58.9,30.10,West,261,2.0,15.0,90,0.00,,,0.00,Wunderground v.1.15,2013-08-30 00:55:00,
2013-08-29 22:00:00,61.8,58.8,30.10,West,269,2.0,15.0,90,0.00,,,0.00,Wunderground v.1.15,2013-08-30 01:00:00,
2013-08-29 22:10:00,61.7,58.7,30.10,WNW,287,2.0,15.0,90,0.00,,,0.00,Wunderground v.1.15,2013-08-30 01:10:00,
2013-08-29 22:15:00,61.7,58.7,30.10,West,271,2.0,15.0,90,0.00,,,0.00,Wunderground v.1.15,2013-08-30 01:15:00,
2013-08-29 22:20:00,61.6,58.9,30.10,WSW,257,2.0,15.0,91,0.00,,,0.00,Wunderground v.1.15,2013-08-30 01:20:00,
2013-08-29 22:25:00,61.6,58.6,30.09,NNW,335,2.0,15.0,90,0.00,,,0.00,Wunderground v.1.15,2013-08-30 01:25:00,
2013-08-29 22:30:00,61.7,58.7,30.09,West,266,2.0,2.0,90,0.00,,,0.00,Wunderground v.1.15,2013-08-30 01:30:00,
2013-08-29 22:40:00,61.8,58.8,30.09,WSW,256,2.0,15.0,90,0.00,,,0.00,Wunderground v.1.15,2013-08-30 01:40:00,
2013-08-29 22:45:00,61.7,58.7,30.09,West,264,2.0,15.0,90,0.00,,,0.00,Wunderground v.1.15,2013-08-30 01:45:00,
2013-08-29 22:50:00,61.7,58.7,30.09,WNW,288,2.0,15.0,90,0.00,,,0.00,Wunderground v.1.15,2013-08-30 01:50:00,
2013-08-29 22:55:00,61.7,58.7,30.08,WSW,241,2.0,15.0,90,0.00,,,0.00,Wunderground v.1.15,2013-08-30 01:55:00,
2013-08-29 23:00:00,61.7,58.7,30.08,WNW,301,2.0,2.0,90,0.00,,,0.00,Wunderground v.1.15,2013-08-30 02:00:00,
2013-08-29 23:05:00,61.6,58.6,30.08,West,269,1.0,15.0,90,0.00,,,0.00,Wunderground v.1.15,2013-08-30 02:05:00,
2013-08-29 23:10:00,61.6,58.6,30.08,SW,218,1.0,15.0,90,0.00,,,0.00,Wunderground v.1.15,2013-08-30 02:10:00,
2013-08-29 23:15:00,61.5,58.5,30.07,SW,221,2.0,15.0,90,0.00,,,0.00,Wunderground v.1.15,2013-08-30 02:15:00,
2013-08-29 23:20:00,61.5,58.5,30.07,WNW,293,2.0,15.0,90,0.00,,,0.00,Wunderground v.1.15,2013-08-30 02:20:00,
2013-08-29 23:25:00,61.5,58.5,30.07,WNW,297,2.0,15.0,90,0.00,,,0.00,Wunderground v.1.15,2013-08-30 02:25:00,
2013-08-29 23:35:00,61.5,58.8,30.06,WNW,283,2.0,15.0,91,0.00,,,0.00,Wunderground v.1.15,2013-08-30 02:35:00,
2013-08-29 23:40:00,61.5,58.8,30.06,WNW,283,2.0,15.0,91,0.00,,,0.00,Wunderground v.1.15,2013-08-30 02:40:00,
2013-08-29 23:45:00,61.5,58.8,30.06,WNW,287,2.0,15.0,91,0.00,,,0.00,Wunderground v.1.15,2013-08-30 02:45:00,
2013-08-29 23:50:00,61.5,58.8,30.06,NE,50,2.0,15.0,91,0.00,,,0.00,Wunderground v.1.15,2013-08-30 02:50:00,
2013-08-29 23:55:00,61.5,58.8,30.06,South,191,2.0,15.0,91,0.00,,,0.00,Wunderground v.1.15,2013-08-30 02:55:00,